sensor_id;sensor_type;location;lat;lon;timestamp;P1;durP1;ratioP1;P2;durP2;ratioP2
56051;SDS011;41919;42.648;23.384;2023-05-20T00:00:02;10.27;;;6.13;;
56051;SDS011;41919;42.648;23.384;2023-05-20T00:02:28;10.07;;;6.13;;
56051;SDS011;41919;42.648;23.384;2023-05-20T00:04:53;9.60;;;5.50;;
56051;SDS011;41919;42.648;23.384;2023-05-20T00:07:19;7.28;;;5.15;;
56051;SDS011;41919;42.648;23.384;2023-05-20T00:09:44;10.05;;;5.93;;
56051;SDS011;41919;42.648;23.384;2023-05-20T00:12:10;7.57;;;5.78;;
56051;SDS011;41919;42.648;23.384;2023-05-20T00:14:35;9.13;;;5.65;;
56051;SDS011;41919;42.648;23.384;2023-05-20T00:17:00;13.00;;;5.78;;
56051;SDS011;41919;42.648;23.384;2023-05-20T00:19:26;10.13;;;5.70;;
56051;SDS011;41919;42.648;23.384;2023-05-20T00:21:51;8.70;;;5.60;;
56051;SDS011;41919;42.648;23.384;2023-05-20T00:24:17;7.57;;;5.43;;
56051;SDS011;41919;42.648;23.384;2023-05-20T00:26:42;8.07;;;5.32;;
56051;SDS011;41919;42.648;23.384;2023-05-20T00:29:07;18.83;;;6.03;;
56051;SDS011;41919;42.648;23.384;2023-05-20T00:31:33;7.75;;;5.25;;
56051;SDS011;41919;42.648;23.384;2023-05-20T00:33:58;9.55;;;5.07;;
56051;SDS011;41919;42.648;23.384;2023-05-20T00:36:24;10.52;;;5.70;;
56051;SDS011;41919;42.648;23.384;2023-05-20T00:38:49;7.53;;;5.53;;
56051;SDS011;41919;42.648;23.384;2023-05-20T00:41:15;9.88;;;4.97;;
56051;SDS011;41919;42.648;23.384;2023-05-20T00:43:40;9.85;;;5.68;;
56051;SDS011;41919;42.648;23.384;2023-05-20T00:46:06;8.82;;;5.25;;
56051;SDS011;41919;42.648;23.384;2023-05-20T00:48:36;8.02;;;5.47;;
56051;SDS011;41919;42.648;23.384;2023-05-20T00:51:05;11.93;;;5.47;;
56051;SDS011;41919;42.648;23.384;2023-05-20T00:53:31;7.20;;;5.20;;
56051;SDS011;41919;42.648;23.384;2023-05-20T00:55:58;8.00;;;4.93;;
56051;SDS011;41919;42.648;23.384;2023-05-20T00:58:24;10.00;;;5.32;;
56051;SDS011;41919;42.648;23.384;2023-05-20T01:00:49;7.63;;;5.50;;
56051;SDS011;41919;42.648;23.384;2023-05-20T01:03:16;9.13;;;5.78;;
56051;SDS011;41919;42.648;23.384;2023-05-20T01:05:42;8.93;;;5.70;;
56051;SDS011;41919;42.648;23.384;2023-05-20T01:08:07;9.85;;;5.68;;
56051;SDS011;41919;42.648;23.384;2023-05-20T01:10:33;9.00;;;5.45;;
56051;SDS011;41919;42.648;23.384;2023-05-20T01:13:04;9.10;;;5.25;;
56051;SDS011;41919;42.648;23.384;2023-05-20T01:15:35;6.85;;;4.90;;
56051;SDS011;41919;42.648;23.384;2023-05-20T01:18:04;9.25;;;5.68;;
56051;SDS011;41919;42.648;23.384;2023-05-20T01:20:34;8.48;;;5.15;;
56051;SDS011;41919;42.648;23.384;2023-05-20T01:23:01;8.38;;;5.80;;
56051;SDS011;41919;42.648;23.384;2023-05-20T01:25:28;9.15;;;6.18;;
56051;SDS011;41919;42.648;23.384;2023-05-20T01:27:54;10.23;;;5.28;;
56051;SDS011;41919;42.648;23.384;2023-05-20T01:30:21;7.60;;;5.10;;
56051;SDS011;41919;42.648;23.384;2023-05-20T01:32:52;7.68;;;5.32;;
56051;SDS011;41919;42.648;23.384;2023-05-20T01:35:22;8.48;;;5.68;;
56051;SDS011;41919;42.648;23.384;2023-05-20T01:37:48;8.13;;;5.78;;
56051;SDS011;41919;42.648;23.384;2023-05-20T01:40:16;11.80;;;6.38;;
56051;SDS011;41919;42.648;23.384;2023-05-20T01:42:42;7.70;;;5.55;;
56051;SDS011;41919;42.648;23.384;2023-05-20T01:45:10;9.02;;;5.68;;
56051;SDS011;41919;42.648;23.384;2023-05-20T01:47:35;9.55;;;5.80;;
56051;SDS011;41919;42.648;23.384;2023-05-20T01:50:01;9.65;;;5.63;;
56051;SDS011;41919;42.648;23.384;2023-05-20T01:52:27;10.00;;;6.03;;
56051;SDS011;41919;42.648;23.384;2023-05-20T01:54:52;11.73;;;5.70;;
56051;SDS011;41919;42.648;23.384;2023-05-20T01:57:18;8.23;;;5.43;;
56051;SDS011;41919;42.648;23.384;2023-05-20T01:59:45;7.38;;;4.75;;
56051;SDS011;41919;42.648;23.384;2023-05-20T02:02:11;9.77;;;5.15;;
56051;SDS011;41919;42.648;23.384;2023-05-20T02:04:37;8.00;;;5.65;;
56051;SDS011;41919;42.648;23.384;2023-05-20T02:07:02;9.45;;;5.35;;
56051;SDS011;41919;42.648;23.384;2023-05-20T02:09:28;8.10;;;5.13;;
56051;SDS011;41919;42.648;23.384;2023-05-20T02:11:53;8.65;;;5.57;;
56051;SDS011;41919;42.648;23.384;2023-05-20T02:14:18;12.23;;;5.30;;
56051;SDS011;41919;42.648;23.384;2023-05-20T02:16:47;7.93;;;4.90;;
56051;SDS011;41919;42.648;23.384;2023-05-20T02:19:12;8.25;;;5.18;;
56051;SDS011;41919;42.648;23.384;2023-05-20T02:21:38;8.10;;;5.30;;
56051;SDS011;41919;42.648;23.384;2023-05-20T02:24:04;10.05;;;4.93;;
56051;SDS011;41919;42.648;23.384;2023-05-20T02:26:30;10.38;;;5.47;;
56051;SDS011;41919;42.648;23.384;2023-05-20T02:28:56;7.97;;;5.38;;
56051;SDS011;41919;42.648;23.384;2023-05-20T02:31:21;10.50;;;4.72;;
56051;SDS011;41919;42.648;23.384;2023-05-20T02:33:46;9.65;;;6.13;;
56051;SDS011;41919;42.648;23.384;2023-05-20T02:36:12;10.20;;;5.15;;
56051;SDS011;41919;42.648;23.384;2023-05-20T02:38:37;9.35;;;5.43;;
56051;SDS011;41919;42.648;23.384;2023-05-20T02:41:03;8.60;;;5.60;;
56051;SDS011;41919;42.648;23.384;2023-05-20T02:43:29;10.98;;;5.47;;
56051;SDS011;41919;42.648;23.384;2023-05-20T02:45:56;12.95;;;5.05;;
56051;SDS011;41919;42.648;23.384;2023-05-20T02:48:21;8.80;;;4.85;;
56051;SDS011;41919;42.648;23.384;2023-05-20T02:50:46;8.23;;;4.95;;
56051;SDS011;41919;42.648;23.384;2023-05-20T02:53:12;7.30;;;4.90;;
56051;SDS011;41919;42.648;23.384;2023-05-20T02:55:38;7.70;;;5.70;;
56051;SDS011;41919;42.648;23.384;2023-05-20T02:58:04;9.95;;;4.93;;
56051;SDS011;41919;42.648;23.384;2023-05-20T03:00:30;9.40;;;5.40;;
56051;SDS011;41919;42.648;23.384;2023-05-20T03:02:56;8.65;;;5.45;;
56051;SDS011;41919;42.648;23.384;2023-05-20T03:05:22;6.53;;;5.05;;
56051;SDS011;41919;42.648;23.384;2023-05-20T03:07:47;9.20;;;4.68;;
56051;SDS011;41919;42.648;23.384;2023-05-20T03:10:13;7.18;;;5.05;;
56051;SDS011;41919;42.648;23.384;2023-05-20T03:12:39;10.95;;;5.45;;
56051;SDS011;41919;42.648;23.384;2023-05-20T03:15:05;8.95;;;4.63;;
56051;SDS011;41919;42.648;23.384;2023-05-20T03:17:31;8.50;;;5.43;;
56051;SDS011;41919;42.648;23.384;2023-05-20T03:19:56;8.88;;;5.60;;
56051;SDS011;41919;42.648;23.384;2023-05-20T03:22:21;12.10;;;6.10;;
56051;SDS011;41919;42.648;23.384;2023-05-20T03:24:47;8.35;;;5.35;;
56051;SDS011;41919;42.648;23.384;2023-05-20T03:27:12;9.25;;;4.80;;
56051;SDS011;41919;42.648;23.384;2023-05-20T03:29:38;8.93;;;4.57;;
56051;SDS011;41919;42.648;23.384;2023-05-20T03:32:03;9.88;;;4.60;;
56051;SDS011;41919;42.648;23.384;2023-05-20T03:34:29;7.10;;;4.38;;
56051;SDS011;41919;42.648;23.384;2023-05-20T03:36:55;7.82;;;5.07;;
56051;SDS011;41919;42.648;23.384;2023-05-20T03:39:21;7.72;;;4.35;;
56051;SDS011;41919;42.648;23.384;2023-05-20T03:41:47;7.55;;;4.15;;
56051;SDS011;41919;42.648;23.384;2023-05-20T03:44:12;7.05;;;3.78;;
56051;SDS011;41919;42.648;23.384;2023-05-20T03:46:37;8.18;;;4.68;;
56051;SDS011;41919;42.648;23.384;2023-05-20T03:49:03;7.03;;;4.50;;
56051;SDS011;41919;42.648;23.384;2023-05-20T03:51:29;7.50;;;4.75;;
56051;SDS011;41919;42.648;23.384;2023-05-20T03:53:55;6.45;;;4.40;;
56051;SDS011;41919;42.648;23.384;2023-05-20T03:56:20;7.97;;;4.90;;
56051;SDS011;41919;42.648;23.384;2023-05-20T03:58:46;7.68;;;4.50;;
56051;SDS011;41919;42.648;23.384;2023-05-20T04:01:12;6.57;;;4.72;;
56051;SDS011;41919;42.648;23.384;2023-05-20T04:03:38;5.88;;;4.07;;
56051;SDS011;41919;42.648;23.384;2023-05-20T04:06:05;6.95;;;4.35;;
56051;SDS011;41919;42.648;23.384;2023-05-20T04:08:31;9.02;;;5.18;;
56051;SDS011;41919;42.648;23.384;2023-05-20T04:10:56;7.65;;;4.63;;
56051;SDS011;41919;42.648;23.384;2023-05-20T04:13:23;6.38;;;4.65;;
56051;SDS011;41919;42.648;23.384;2023-05-20T04:15:50;8.18;;;4.20;;
56051;SDS011;41919;42.648;23.384;2023-05-20T04:18:17;8.25;;;4.72;;
56051;SDS011;41919;42.648;23.384;2023-05-20T04:20:42;7.28;;;4.20;;
56051;SDS011;41919;42.648;23.384;2023-05-20T04:23:08;5.70;;;4.35;;
56051;SDS011;41919;42.648;23.384;2023-05-20T04:25:34;9.55;;;4.13;;
56051;SDS011;41919;42.648;23.384;2023-05-20T04:28:00;6.63;;;3.97;;
56051;SDS011;41919;42.648;23.384;2023-05-20T04:30:25;6.22;;;4.35;;
56051;SDS011;41919;42.648;23.384;2023-05-20T04:32:51;5.82;;;3.97;;
56051;SDS011;41919;42.648;23.384;2023-05-20T04:35:18;8.02;;;4.03;;
56051;SDS011;41919;42.648;23.384;2023-05-20T04:37:43;6.90;;;4.75;;
56051;SDS011;41919;42.648;23.384;2023-05-20T04:40:12;7.05;;;3.72;;
56051;SDS011;41919;42.648;23.384;2023-05-20T04:42:38;9.15;;;3.83;;
56051;SDS011;41919;42.648;23.384;2023-05-20T04:45:03;6.22;;;4.38;;
56051;SDS011;41919;42.648;23.384;2023-05-20T04:47:30;7.05;;;4.18;;
56051;SDS011;41919;42.648;23.384;2023-05-20T04:50:02;5.10;;;3.88;;
56051;SDS011;41919;42.648;23.384;2023-05-20T04:52:28;5.75;;;3.65;;
56051;SDS011;41919;42.648;23.384;2023-05-20T04:54:54;5.28;;;4.10;;
56051;SDS011;41919;42.648;23.384;2023-05-20T04:57:22;6.18;;;3.67;;
56051;SDS011;41919;42.648;23.384;2023-05-20T04:59:47;5.38;;;3.72;;
56051;SDS011;41919;42.648;23.384;2023-05-20T05:02:13;6.93;;;4.20;;
56051;SDS011;41919;42.648;23.384;2023-05-20T05:04:38;7.78;;;3.85;;
56051;SDS011;41919;42.648;23.384;2023-05-20T05:07:04;5.97;;;4.50;;
56051;SDS011;41919;42.648;23.384;2023-05-20T05:09:30;6.38;;;4.55;;
56051;SDS011;41919;42.648;23.384;2023-05-20T05:11:55;8.60;;;4.53;;
56051;SDS011;41919;42.648;23.384;2023-05-20T05:14:21;11.85;;;4.13;;
56051;SDS011;41919;42.648;23.384;2023-05-20T05:16:47;10.15;;;4.43;;
56051;SDS011;41919;42.648;23.384;2023-05-20T05:19:13;6.22;;;4.38;;
56051;SDS011;41919;42.648;23.384;2023-05-20T05:21:38;7.53;;;4.57;;
56051;SDS011;41919;42.648;23.384;2023-05-20T05:24:04;6.70;;;4.38;;
56051;SDS011;41919;42.648;23.384;2023-05-20T05:26:30;6.45;;;3.95;;
56051;SDS011;41919;42.648;23.384;2023-05-20T05:28:56;6.40;;;4.50;;
56051;SDS011;41919;42.648;23.384;2023-05-20T05:31:22;8.00;;;4.32;;
56051;SDS011;41919;42.648;23.384;2023-05-20T05:33:47;7.35;;;4.40;;
56051;SDS011;41919;42.648;23.384;2023-05-20T05:36:12;7.72;;;3.88;;
56051;SDS011;41919;42.648;23.384;2023-05-20T05:38:38;6.20;;;4.30;;
56051;SDS011;41919;42.648;23.384;2023-05-20T05:41:03;11.38;;;5.00;;
56051;SDS011;41919;42.648;23.384;2023-05-20T05:43:29;12.32;;;5.68;;
56051;SDS011;41919;42.648;23.384;2023-05-20T05:45:54;8.00;;;5.10;;
56051;SDS011;41919;42.648;23.384;2023-05-20T05:48:20;8.88;;;5.00;;
56051;SDS011;41919;42.648;23.384;2023-05-20T05:50:46;13.52;;;4.88;;
56051;SDS011;41919;42.648;23.384;2023-05-20T05:53:12;10.45;;;5.07;;
56051;SDS011;41919;42.648;23.384;2023-05-20T05:55:38;8.55;;;5.10;;
56051;SDS011;41919;42.648;23.384;2023-05-20T05:58:03;8.95;;;5.30;;
56051;SDS011;41919;42.648;23.384;2023-05-20T06:00:28;7.10;;;4.82;;
56051;SDS011;41919;42.648;23.384;2023-05-20T06:02:54;7.50;;;5.13;;
56051;SDS011;41919;42.648;23.384;2023-05-20T06:05:19;7.28;;;5.70;;
56051;SDS011;41919;42.648;23.384;2023-05-20T06:07:45;8.32;;;4.88;;
56051;SDS011;41919;42.648;23.384;2023-05-20T06:10:10;9.07;;;4.25;;
56051;SDS011;41919;42.648;23.384;2023-05-20T06:12:36;7.72;;;4.82;;
56051;SDS011;41919;42.648;23.384;2023-05-20T06:15:01;9.02;;;4.68;;
56051;SDS011;41919;42.648;23.384;2023-05-20T06:17:27;5.22;;;3.85;;
56051;SDS011;41919;42.648;23.384;2023-05-20T06:19:53;6.35;;;3.88;;
56051;SDS011;41919;42.648;23.384;2023-05-20T06:22:18;8.38;;;4.00;;
56051;SDS011;41919;42.648;23.384;2023-05-20T06:24:44;3.75;;;3.28;;
56051;SDS011;41919;42.648;23.384;2023-05-20T06:27:09;5.10;;;4.00;;
56051;SDS011;41919;42.648;23.384;2023-05-20T06:29:34;5.60;;;3.97;;
56051;SDS011;41919;42.648;23.384;2023-05-20T06:32:00;6.65;;;3.88;;
56051;SDS011;41919;42.648;23.384;2023-05-20T06:34:25;4.45;;;3.75;;
56051;SDS011;41919;42.648;23.384;2023-05-20T06:36:51;4.78;;;4.18;;
56051;SDS011;41919;42.648;23.384;2023-05-20T06:39:17;4.22;;;3.83;;
56051;SDS011;41919;42.648;23.384;2023-05-20T06:41:42;7.50;;;3.72;;
56051;SDS011;41919;42.648;23.384;2023-05-20T06:44:08;5.53;;;4.10;;
56051;SDS011;41919;42.648;23.384;2023-05-20T06:46:33;5.18;;;3.90;;
56051;SDS011;41919;42.648;23.384;2023-05-20T06:48:59;5.85;;;3.67;;
56051;SDS011;41919;42.648;23.384;2023-05-20T06:51:25;5.15;;;3.78;;
56051;SDS011;41919;42.648;23.384;2023-05-20T06:53:52;4.70;;;4.10;;
56051;SDS011;41919;42.648;23.384;2023-05-20T06:56:17;5.95;;;3.90;;
56051;SDS011;41919;42.648;23.384;2023-05-20T06:58:43;6.10;;;4.20;;
56051;SDS011;41919;42.648;23.384;2023-05-20T07:01:09;6.72;;;4.15;;
56051;SDS011;41919;42.648;23.384;2023-05-20T07:03:34;5.13;;;3.70;;
56051;SDS011;41919;42.648;23.384;2023-05-20T07:06:00;5.38;;;4.10;;
56051;SDS011;41919;42.648;23.384;2023-05-20T07:08:26;8.27;;;4.40;;
56051;SDS011;41919;42.648;23.384;2023-05-20T07:10:51;6.72;;;4.05;;
56051;SDS011;41919;42.648;23.384;2023-05-20T07:13:20;6.72;;;4.05;;
56051;SDS011;41919;42.648;23.384;2023-05-20T07:15:48;5.60;;;3.75;;
56051;SDS011;41919;42.648;23.384;2023-05-20T07:18:13;8.63;;;4.25;;
56051;SDS011;41919;42.648;23.384;2023-05-20T07:20:39;5.00;;;4.53;;
56051;SDS011;41919;42.648;23.384;2023-05-20T07:23:04;8.23;;;4.22;;
56051;SDS011;41919;42.648;23.384;2023-05-20T07:25:30;7.95;;;3.95;;
56051;SDS011;41919;42.648;23.384;2023-05-20T07:27:55;4.78;;;4.10;;
56051;SDS011;41919;42.648;23.384;2023-05-20T07:30:21;4.35;;;3.88;;
56051;SDS011;41919;42.648;23.384;2023-05-20T07:32:46;4.50;;;4.10;;
56051;SDS011;41919;42.648;23.384;2023-05-20T07:35:12;7.40;;;4.78;;
56051;SDS011;41919;42.648;23.384;2023-05-20T07:37:37;6.80;;;4.30;;
56051;SDS011;41919;42.648;23.384;2023-05-20T07:40:02;6.55;;;4.00;;
56051;SDS011;41919;42.648;23.384;2023-05-20T07:42:29;5.10;;;3.83;;
56051;SDS011;41919;42.648;23.384;2023-05-20T07:44:54;5.15;;;4.25;;
56051;SDS011;41919;42.648;23.384;2023-05-20T07:47:20;6.32;;;3.90;;
56051;SDS011;41919;42.648;23.384;2023-05-20T07:49:45;5.88;;;4.45;;
56051;SDS011;41919;42.648;23.384;2023-05-20T07:52:11;7.85;;;4.65;;
56051;SDS011;41919;42.648;23.384;2023-05-20T07:54:36;6.60;;;4.40;;
56051;SDS011;41919;42.648;23.384;2023-05-20T07:57:02;5.68;;;4.20;;
56051;SDS011;41919;42.648;23.384;2023-05-20T07:59:27;7.32;;;4.60;;
56051;SDS011;41919;42.648;23.384;2023-05-20T08:01:53;7.65;;;4.82;;
56051;SDS011;41919;42.648;23.384;2023-05-20T08:04:18;6.40;;;4.32;;
56051;SDS011;41919;42.648;23.384;2023-05-20T08:06:44;5.13;;;4.22;;
56051;SDS011;41919;42.648;23.384;2023-05-20T08:09:09;6.88;;;4.50;;
56051;SDS011;41919;42.648;23.384;2023-05-20T08:11:35;6.30;;;4.78;;
56051;SDS011;41919;42.648;23.384;2023-05-20T08:14:01;6.20;;;4.32;;
56051;SDS011;41919;42.648;23.384;2023-05-20T08:16:26;7.28;;;4.90;;
56051;SDS011;41919;42.648;23.384;2023-05-20T08:18:52;10.18;;;5.75;;
56051;SDS011;41919;42.648;23.384;2023-05-20T08:21:17;10.93;;;6.30;;
56051;SDS011;41919;42.648;23.384;2023-05-20T08:23:43;8.02;;;5.43;;
56051;SDS011;41919;42.648;23.384;2023-05-20T08:26:08;10.20;;;5.45;;
56051;SDS011;41919;42.648;23.384;2023-05-20T08:28:34;12.25;;;6.07;;
56051;SDS011;41919;42.648;23.384;2023-05-20T08:31:01;6.90;;;5.03;;
56051;SDS011;41919;42.648;23.384;2023-05-20T08:33:27;6.50;;;4.45;;
56051;SDS011;41919;42.648;23.384;2023-05-20T08:35:53;6.30;;;4.82;;
56051;SDS011;41919;42.648;23.384;2023-05-20T08:38:18;7.82;;;5.38;;
56051;SDS011;41919;42.648;23.384;2023-05-20T08:40:44;6.97;;;4.93;;
56051;SDS011;41919;42.648;23.384;2023-05-20T08:43:10;7.50;;;5.97;;
56051;SDS011;41919;42.648;23.384;2023-05-20T08:45:36;6.90;;;5.63;;
56051;SDS011;41919;42.648;23.384;2023-05-20T08:48:03;8.93;;;5.50;;
56051;SDS011;41919;42.648;23.384;2023-05-20T08:50:29;5.53;;;5.00;;
56051;SDS011;41919;42.648;23.384;2023-05-20T08:52:55;5.68;;;4.40;;
56051;SDS011;41919;42.648;23.384;2023-05-20T08:55:23;7.03;;;5.25;;
56051;SDS011;41919;42.648;23.384;2023-05-20T08:57:49;7.35;;;4.68;;
56051;SDS011;41919;42.648;23.384;2023-05-20T09:00:15;6.15;;;4.85;;
56051;SDS011;41919;42.648;23.384;2023-05-20T09:02:43;5.55;;;4.75;;
56051;SDS011;41919;42.648;23.384;2023-05-20T09:05:10;6.07;;;4.80;;
56051;SDS011;41919;42.648;23.384;2023-05-20T09:07:36;5.38;;;4.70;;
56051;SDS011;41919;42.648;23.384;2023-05-20T09:10:02;7.90;;;4.95;;
56051;SDS011;41919;42.648;23.384;2023-05-20T09:12:28;6.10;;;5.00;;
56051;SDS011;41919;42.648;23.384;2023-05-20T09:14:53;9.85;;;4.97;;
56051;SDS011;41919;42.648;23.384;2023-05-20T09:17:20;7.53;;;5.25;;
56051;SDS011;41919;42.648;23.384;2023-05-20T09:19:48;7.65;;;5.20;;
56051;SDS011;41919;42.648;23.384;2023-05-20T09:22:14;7.18;;;5.43;;
56051;SDS011;41919;42.648;23.384;2023-05-20T09:24:47;6.43;;;4.90;;
56051;SDS011;41919;42.648;23.384;2023-05-20T09:27:12;8.70;;;5.43;;
56051;SDS011;41919;42.648;23.384;2023-05-20T09:29:38;8.43;;;4.95;;
56051;SDS011;41919;42.648;23.384;2023-05-20T09:32:03;8.40;;;4.88;;
56051;SDS011;41919;42.648;23.384;2023-05-20T09:34:29;6.93;;;4.82;;
56051;SDS011;41919;42.648;23.384;2023-05-20T09:36:55;5.68;;;5.00;;
56051;SDS011;41919;42.648;23.384;2023-05-20T09:39:24;6.78;;;4.88;;
56051;SDS011;41919;42.648;23.384;2023-05-20T09:41:54;6.40;;;4.80;;
56051;SDS011;41919;42.648;23.384;2023-05-20T09:44:26;6.40;;;4.85;;
56051;SDS011;41919;42.648;23.384;2023-05-20T09:46:53;6.45;;;4.65;;
56051;SDS011;41919;42.648;23.384;2023-05-20T09:49:20;6.43;;;4.53;;
56051;SDS011;41919;42.648;23.384;2023-05-20T09:51:48;7.28;;;4.57;;
56051;SDS011;41919;42.648;23.384;2023-05-20T09:54:16;6.72;;;5.20;;
56051;SDS011;41919;42.648;23.384;2023-05-20T09:56:43;5.72;;;5.07;;
56051;SDS011;41919;42.648;23.384;2023-05-20T09:59:10;6.43;;;4.60;;
56051;SDS011;41919;42.648;23.384;2023-05-20T10:01:40;8.57;;;4.97;;
56051;SDS011;41919;42.648;23.384;2023-05-20T10:04:06;6.55;;;4.57;;
56051;SDS011;41919;42.648;23.384;2023-05-20T10:19:43;4.97;;;3.88;;
56051;SDS011;41919;42.648;23.384;2023-05-20T10:22:09;5.53;;;3.85;;
56051;SDS011;41919;42.648;23.384;2023-05-20T10:24:36;4.95;;;4.07;;
56051;SDS011;41919;42.648;23.384;2023-05-20T10:27:02;4.43;;;3.72;;
56051;SDS011;41919;42.648;23.384;2023-05-20T10:29:32;6.00;;;3.58;;
56051;SDS011;41919;42.648;23.384;2023-05-20T10:32:36;4.50;;;3.55;;
56051;SDS011;41919;42.648;23.384;2023-05-20T10:35:03;6.18;;;4.07;;
56051;SDS011;41919;42.648;23.384;2023-05-20T10:37:43;7.25;;;3.60;;
56051;SDS011;41919;42.648;23.384;2023-05-20T10:40:13;3.97;;;3.58;;
56051;SDS011;41919;42.648;23.384;2023-05-20T10:42:40;4.70;;;3.40;;
56051;SDS011;41919;42.648;23.384;2023-05-20T10:45:07;4.78;;;3.58;;
56051;SDS011;41919;42.648;23.384;2023-05-20T10:47:33;6.30;;;3.30;;
56051;SDS011;41919;42.648;23.384;2023-05-20T10:50:00;3.60;;;3.30;;
56051;SDS011;41919;42.648;23.384;2023-05-20T10:52:26;3.42;;;3.13;;
56051;SDS011;41919;42.648;23.384;2023-05-20T10:54:58;6.57;;;3.95;;
56051;SDS011;41919;42.648;23.384;2023-05-20T10:57:25;5.75;;;3.60;;
56051;SDS011;41919;42.648;23.384;2023-05-20T10:59:52;8.35;;;3.30;;
56051;SDS011;41919;42.648;23.384;2023-05-20T11:02:19;4.60;;;3.70;;
56051;SDS011;41919;42.648;23.384;2023-05-20T11:04:51;5.22;;;3.58;;
56051;SDS011;41919;42.648;23.384;2023-05-20T11:07:26;4.55;;;3.45;;
56051;SDS011;41919;42.648;23.384;2023-05-20T11:09:54;3.80;;;3.45;;
56051;SDS011;41919;42.648;23.384;2023-05-20T11:12:20;4.95;;;3.67;;
56051;SDS011;41919;42.648;23.384;2023-05-20T11:14:48;5.45;;;3.97;;
56051;SDS011;41919;42.648;23.384;2023-05-20T11:17:14;4.82;;;3.97;;
56051;SDS011;41919;42.648;23.384;2023-05-20T11:19:41;7.72;;;3.92;;
56051;SDS011;41919;42.648;23.384;2023-05-20T11:22:07;6.22;;;3.63;;
56051;SDS011;41919;42.648;23.384;2023-05-20T11:24:33;6.40;;;3.83;;
56051;SDS011;41919;42.648;23.384;2023-05-20T11:26:59;6.18;;;3.88;;
56051;SDS011;41919;42.648;23.384;2023-05-20T11:29:26;4.80;;;3.67;;
56051;SDS011;41919;42.648;23.384;2023-05-20T11:31:53;4.75;;;3.92;;
56051;SDS011;41919;42.648;23.384;2023-05-20T11:34:19;5.00;;;3.58;;
56051;SDS011;41919;42.648;23.384;2023-05-20T11:36:46;5.20;;;3.80;;
56051;SDS011;41919;42.648;23.384;2023-05-20T11:39:12;5.03;;;3.88;;
56051;SDS011;41919;42.648;23.384;2023-05-20T11:41:40;6.32;;;3.92;;
56051;SDS011;41919;42.648;23.384;2023-05-20T11:44:09;5.13;;;3.67;;
56051;SDS011;41919;42.648;23.384;2023-05-20T11:46:41;4.10;;;3.55;;
56051;SDS011;41919;42.648;23.384;2023-05-20T11:49:08;6.80;;;4.07;;
56051;SDS011;41919;42.648;23.384;2023-05-20T11:51:34;6.28;;;3.92;;
56051;SDS011;41919;42.648;23.384;2023-05-20T11:54:03;5.55;;;3.70;;
56051;SDS011;41919;42.648;23.384;2023-05-20T11:56:30;6.00;;;3.80;;
56051;SDS011;41919;42.648;23.384;2023-05-20T11:58:58;6.05;;;3.83;;
56051;SDS011;41919;42.648;23.384;2023-05-20T12:01:24;4.68;;;3.70;;
56051;SDS011;41919;42.648;23.384;2023-05-20T12:03:49;5.80;;;3.33;;
56051;SDS011;41919;42.648;23.384;2023-05-20T12:06:18;3.67;;;3.03;;
56051;SDS011;41919;42.648;23.384;2023-05-20T12:08:44;4.70;;;3.20;;
56051;SDS011;41919;42.648;23.384;2023-05-20T12:11:10;5.05;;;3.70;;
56051;SDS011;41919;42.648;23.384;2023-05-20T12:13:36;4.97;;;3.95;;
56051;SDS011;41919;42.648;23.384;2023-05-20T12:16:01;9.40;;;5.00;;
56051;SDS011;41919;42.648;23.384;2023-05-20T12:18:29;8.43;;;4.70;;
56051;SDS011;41919;42.648;23.384;2023-05-20T12:20:55;4.03;;;2.78;;
56051;SDS011;41919;42.648;23.384;2023-05-20T12:23:21;4.35;;;2.78;;
56051;SDS011;41919;42.648;23.384;2023-05-20T12:25:46;7.60;;;2.95;;
56051;SDS011;41919;42.648;23.384;2023-05-20T12:28:13;9.35;;;2.90;;
56051;SDS011;41919;42.648;23.384;2023-05-20T12:30:40;3.03;;;2.42;;
56051;SDS011;41919;42.648;23.384;2023-05-20T12:33:05;3.15;;;2.13;;
56051;SDS011;41919;42.648;23.384;2023-05-20T12:35:38;5.50;;;2.70;;
56051;SDS011;41919;42.648;23.384;2023-05-20T12:38:06;3.13;;;2.45;;
56051;SDS011;41919;42.648;23.384;2023-05-20T12:40:32;5.15;;;2.92;;
56051;SDS011;41919;42.648;23.384;2023-05-20T12:42:59;4.85;;;3.25;;
56051;SDS011;41919;42.648;23.384;2023-05-20T12:45:25;4.03;;;3.03;;
56051;SDS011;41919;42.648;23.384;2023-05-20T12:47:51;4.38;;;2.67;;
56051;SDS011;41919;42.648;23.384;2023-05-20T12:50:16;4.97;;;3.13;;
56051;SDS011;41919;42.648;23.384;2023-05-20T12:52:42;4.07;;;2.75;;
56051;SDS011;41919;42.648;23.384;2023-05-20T12:55:07;4.30;;;2.95;;
56051;SDS011;41919;42.648;23.384;2023-05-20T12:57:41;7.28;;;3.08;;
56051;SDS011;41919;42.648;23.384;2023-05-20T13:00:08;2.88;;;2.65;;
56051;SDS011;41919;42.648;23.384;2023-05-20T13:02:35;2.80;;;2.45;;
56051;SDS011;41919;42.648;23.384;2023-05-20T13:05:01;4.63;;;3.40;;
56051;SDS011;41919;42.648;23.384;2023-05-20T13:07:27;4.25;;;2.88;;
56051;SDS011;41919;42.648;23.384;2023-05-20T13:09:53;8.27;;;3.03;;
56051;SDS011;41919;42.648;23.384;2023-05-20T13:12:18;4.57;;;2.88;;
56051;SDS011;41919;42.648;23.384;2023-05-20T13:14:44;5.65;;;3.55;;
56051;SDS011;41919;42.648;23.384;2023-05-20T13:17:10;7.60;;;2.92;;
56051;SDS011;41919;42.648;23.384;2023-05-20T13:19:35;3.17;;;2.88;;
56051;SDS011;41919;42.648;23.384;2023-05-20T13:22:02;5.25;;;3.50;;
56051;SDS011;41919;42.648;23.384;2023-05-20T13:24:28;5.70;;;3.50;;
56051;SDS011;41919;42.648;23.384;2023-05-20T13:26:53;3.40;;;3.10;;
56051;SDS011;41919;42.648;23.384;2023-05-20T13:29:18;3.25;;;2.80;;
56051;SDS011;41919;42.648;23.384;2023-05-20T13:31:45;4.57;;;3.28;;
56051;SDS011;41919;42.648;23.384;2023-05-20T13:34:11;4.75;;;3.67;;
56051;SDS011;41919;42.648;23.384;2023-05-20T13:36:37;4.18;;;2.83;;
56051;SDS011;41919;42.648;23.384;2023-05-20T13:39:03;5.00;;;3.65;;
56051;SDS011;41919;42.648;23.384;2023-05-20T13:41:28;4.03;;;3.13;;
56051;SDS011;41919;42.648;23.384;2023-05-20T13:43:54;6.70;;;2.95;;
56051;SDS011;41919;42.648;23.384;2023-05-20T13:46:20;3.53;;;3.03;;
56051;SDS011;41919;42.648;23.384;2023-05-20T13:48:46;5.93;;;3.30;;
56051;SDS011;41919;42.648;23.384;2023-05-20T13:51:11;4.72;;;3.47;;
56051;SDS011;41919;42.648;23.384;2023-05-20T13:53:37;5.15;;;3.70;;
56051;SDS011;41919;42.648;23.384;2023-05-20T13:56:03;3.17;;;2.53;;
56051;SDS011;41919;42.648;23.384;2023-05-20T13:58:29;4.03;;;2.80;;
56051;SDS011;41919;42.648;23.384;2023-05-20T14:00:55;3.63;;;3.20;;
56051;SDS011;41919;42.648;23.384;2023-05-20T14:03:21;5.32;;;3.40;;
56051;SDS011;41919;42.648;23.384;2023-05-20T14:05:46;4.13;;;3.08;;
56051;SDS011;41919;42.648;23.384;2023-05-20T14:08:12;4.78;;;2.80;;
56051;SDS011;41919;42.648;23.384;2023-05-20T14:10:37;4.75;;;3.38;;
56051;SDS011;41919;42.648;23.384;2023-05-20T14:13:03;4.50;;;3.33;;
56051;SDS011;41919;42.648;23.384;2023-05-20T14:15:28;4.55;;;3.67;;
56051;SDS011;41919;42.648;23.384;2023-05-20T14:17:57;4.40;;;3.15;;
56051;SDS011;41919;42.648;23.384;2023-05-20T14:20:23;2.85;;;2.60;;
56051;SDS011;41919;42.648;23.384;2023-05-20T14:22:49;3.15;;;2.67;;
56051;SDS011;41919;42.648;23.384;2023-05-20T14:25:16;3.97;;;3.25;;
56051;SDS011;41919;42.648;23.384;2023-05-20T14:27:41;4.78;;;3.65;;
56051;SDS011;41919;42.648;23.384;2023-05-20T14:30:07;9.95;;;3.55;;
56051;SDS011;41919;42.648;23.384;2023-05-20T14:32:33;5.57;;;3.67;;
56051;SDS011;41919;42.648;23.384;2023-05-20T14:34:58;4.88;;;3.72;;
56051;SDS011;41919;42.648;23.384;2023-05-20T14:37:24;4.88;;;3.45;;
56051;SDS011;41919;42.648;23.384;2023-05-20T14:39:51;6.90;;;3.83;;